Caribou Island, Canada
Current Conditions -  °F | °C
As of 2:00 PM on Monday 20 Oct 2014 (Local Time) from CYXZ Reporting Station
Light Rain Light Rain  
Wind Chill: 39°   Ceiling: 800
Heat Index: 43°   Visibility: 15mi
Dew Point: 41°   Wind: 7mph
Humidity: 93%   Direction: 20°NNE
Pressure: 29.81"   Gusts: NA
Location:  47.33°N, 85.83°W
Report Text: CYXZ 201800Z 02006KT 350V050 15SM -RA OVC008 06/05 A2981 RMK SC8 SLP103
Loading
Personal Weather Stations






























Interactive Weather Map
Tropical Storm Tracking
New forecast layout! Learn more

10-Day Weather Forecast

Advertisements
Track Severe Weather on mobile